Franklin, VA

3:30 PM EST on January 25, 2015 (GMT -0500)
Aaron's Weather Service | Change Station
CLOSE
Current Station
Personal Weather Station
Location: Franklin, VA
Elevation: 98 ft
Nearby Weather Stations

Elev 98 ft 36.70 °N, 76.96 °W | Updated 16 seconds ago

Clear
Clear
52.0 °F
Feels Like 52.0 °F
N
11.9
Wind Variable Wind from SSE
Gusts 13.8 mph

Today
High -- | Low -- °F
--% Chance of Precip.
Yesterday
High -- | Low -- °F
Precip. -- in
7:14 AM 5:25 PM
Waxing Crescent, 35% visible
Pressure 29.88 in
Visibility 10.0 miles
Clouds Clear
Dew Point 37 °F
Humidity 57%
Rainfall 0.00 in
Snow Depth Not available.
UV 1 out of 12
Pollen 1.60 out of 12
Air Quality Not available.
Flu Activity Not available.
METAR KFKN 252015Z AUTO 22006KT 10SM CLR 11/00 A2988 RMK AO2 T01070000

More Conditions Fewer Conditions

Pressure 29.88 in
Visibility 10.0 miles
Clouds Clear
Dew Point 37 °F
Humidity 57%
Rainfall 0.00 in
Snow Depth Not available.
UV 1 out of 12
Pollen 1.60 out of 12
Air Quality Not available.
Flu Activity Not available.
METAR KFKN 252015Z AUTO 22006KT 10SM CLR 11/00 A2988 RMK AO2 T01070000

More Conditions Fewer Conditions

10-Day Weather Forecast

Almanac

Astronomy

Jan. 25, 2015 Rise Set
Actual Time
Civil Twilight
Nautical Twilight
Astronomical Twilight
Moon
Length of Visible Light
Length of Day
Tomorrow will be .
, % of the Moon is Illuminated

Today's Extremes

State Highs State Lows

Community

WunderPhotos

Upload Photos

1,790,040 photos uploaded!

WunderBlogs® & News

Nearby

Air Quality

  Air Quality AQ Index Pollutant
Not available.

Snow Depth

Station Depth Elevation

Earthquake Activity

City Distance Mag. Time & Date
Minimum magnitude displayed is 2.5.

Coastal Water Temperatures

Place Temperature

Nearby Weather Stations